sensor_id;sensor_type;location;lat;lon;timestamp;P1;durP1;ratioP1;P2;durP2;ratioP2
25946;SDS011;13745;51.470;9.894;2023-05-02T00:00:33;2.83;;;1.90;;
25946;SDS011;13745;51.470;9.894;2023-05-02T00:03:19;3.55;;;2.35;;
25946;SDS011;13745;51.470;9.894;2023-05-02T00:06:04;3.25;;;2.10;;
25946;SDS011;13745;51.470;9.894;2023-05-02T00:08:50;2.83;;;1.77;;
25946;SDS011;13745;51.470;9.894;2023-05-02T00:11:35;2.40;;;2.20;;
25946;SDS011;13745;51.470;9.894;2023-05-02T00:14:21;2.30;;;1.88;;
25946;SDS011;13745;51.470;9.894;2023-05-02T00:17:08;2.53;;;2.20;;
25946;SDS011;13745;51.470;9.894;2023-05-02T00:19:53;3.38;;;2.45;;
25946;SDS011;13745;51.470;9.894;2023-05-02T00:22:38;2.17;;;1.98;;
25946;SDS011;13745;51.470;9.894;2023-05-02T00:25:23;5.28;;;1.85;;
25946;SDS011;13745;51.470;9.894;2023-05-02T00:28:08;2.83;;;2.60;;
25946;SDS011;13745;51.470;9.894;2023-05-02T00:30:54;3.95;;;2.30;;
25946;SDS011;13745;51.470;9.894;2023-05-02T00:33:40;2.15;;;1.95;;
25946;SDS011;13745;51.470;9.894;2023-05-02T00:36:25;3.53;;;2.20;;
25946;SDS011;13745;51.470;9.894;2023-05-02T00:39:10;2.63;;;1.98;;
25946;SDS011;13745;51.470;9.894;2023-05-02T00:41:56;3.55;;;2.20;;
25946;SDS011;13745;51.470;9.894;2023-05-02T00:44:41;3.08;;;2.65;;
25946;SDS011;13745;51.470;9.894;2023-05-02T00:47:28;2.75;;;2.50;;
25946;SDS011;13745;51.470;9.894;2023-05-02T00:50:13;2.40;;;2.20;;
25946;SDS011;13745;51.470;9.894;2023-05-02T00:52:59;2.35;;;2.10;;
25946;SDS011;13745;51.470;9.894;2023-05-02T00:55:44;2.55;;;2.30;;
25946;SDS011;13745;51.470;9.894;2023-05-02T00:58:32;2.53;;;2.10;;
25946;SDS011;13745;51.470;9.894;2023-05-02T01:01:23;2.50;;;1.92;;
25946;SDS011;13745;51.470;9.894;2023-05-02T01:04:22;2.60;;;2.40;;
25946;SDS011;13745;51.470;9.894;2023-05-02T01:07:21;3.20;;;2.20;;
25946;SDS011;13745;51.470;9.894;2023-05-02T01:10:20;3.22;;;2.72;;
25946;SDS011;13745;51.470;9.894;2023-05-02T01:13:16;3.42;;;2.63;;
25946;SDS011;13745;51.470;9.894;2023-05-02T01:16:04;4.80;;;2.63;;
25946;SDS011;13745;51.470;9.894;2023-05-02T01:18:51;3.60;;;2.55;;
25946;SDS011;13745;51.470;9.894;2023-05-02T01:21:39;4.25;;;2.97;;
25946;SDS011;13745;51.470;9.894;2023-05-02T01:24:27;3.72;;;2.63;;
25946;SDS011;13745;51.470;9.894;2023-05-02T01:27:17;4.38;;;2.83;;
25946;SDS011;13745;51.470;9.894;2023-05-02T01:30:13;3.53;;;2.53;;
25946;SDS011;13745;51.470;9.894;2023-05-02T01:33:00;3.03;;;2.55;;
25946;SDS011;13745;51.470;9.894;2023-05-02T01:35:46;3.50;;;2.53;;
25946;SDS011;13745;51.470;9.894;2023-05-02T01:38:35;4.57;;;3.17;;
25946;SDS011;13745;51.470;9.894;2023-05-02T01:41:24;3.63;;;2.83;;
25946;SDS011;13745;51.470;9.894;2023-05-02T01:44:11;3.53;;;3.10;;
25946;SDS011;13745;51.470;9.894;2023-05-02T01:46:58;3.30;;;2.88;;
25946;SDS011;13745;51.470;9.894;2023-05-02T01:49:46;3.28;;;2.97;;
25946;SDS011;13745;51.470;9.894;2023-05-02T01:52:31;4.07;;;3.25;;
25946;SDS011;13745;51.470;9.894;2023-05-02T01:55:17;3.67;;;3.10;;
25946;SDS011;13745;51.470;9.894;2023-05-02T01:58:03;4.00;;;2.85;;
25946;SDS011;13745;51.470;9.894;2023-05-02T02:00:50;3.42;;;2.90;;
25946;SDS011;13745;51.470;9.894;2023-05-02T02:03:38;4.60;;;3.60;;
25946;SDS011;13745;51.470;9.894;2023-05-02T02:06:23;4.03;;;3.55;;
25946;SDS011;13745;51.470;9.894;2023-05-02T02:09:08;4.00;;;3.58;;
25946;SDS011;13745;51.470;9.894;2023-05-02T02:11:56;4.40;;;3.97;;
25946;SDS011;13745;51.470;9.894;2023-05-02T02:14:47;6.10;;;3.75;;
25946;SDS011;13745;51.470;9.894;2023-05-02T02:17:41;5.47;;;4.60;;
25946;SDS011;13745;51.470;9.894;2023-05-02T02:20:31;4.32;;;3.85;;
25946;SDS011;13745;51.470;9.894;2023-05-02T02:23:16;5.63;;;4.53;;
25946;SDS011;13745;51.470;9.894;2023-05-02T02:26:04;4.55;;;4.15;;
25946;SDS011;13745;51.470;9.894;2023-05-02T02:28:53;7.32;;;4.75;;
25946;SDS011;13745;51.470;9.894;2023-05-02T02:31:39;4.47;;;4.07;;
25946;SDS011;13745;51.470;9.894;2023-05-02T02:34:25;4.65;;;4.07;;
25946;SDS011;13745;51.470;9.894;2023-05-02T02:37:13;5.32;;;3.78;;
25946;SDS011;13745;51.470;9.894;2023-05-02T02:40:03;5.57;;;4.10;;
25946;SDS011;13745;51.470;9.894;2023-05-02T02:42:54;4.95;;;4.10;;
25946;SDS011;13745;51.470;9.894;2023-05-02T02:45:47;4.68;;;4.10;;
25946;SDS011;13745;51.470;9.894;2023-05-02T02:48:42;4.78;;;3.95;;
25946;SDS011;13745;51.470;9.894;2023-05-02T02:51:36;4.60;;;4.20;;
25946;SDS011;13745;51.470;9.894;2023-05-02T02:54:28;5.45;;;4.50;;
25946;SDS011;13745;51.470;9.894;2023-05-02T02:57:17;5.75;;;4.50;;
25946;SDS011;13745;51.470;9.894;2023-05-02T03:00:12;6.63;;;5.25;;
25946;SDS011;13745;51.470;9.894;2023-05-02T03:03:01;7.30;;;5.28;;
25946;SDS011;13745;51.470;9.894;2023-05-02T03:05:48;5.80;;;5.15;;
25946;SDS011;13745;51.470;9.894;2023-05-02T03:08:37;6.25;;;5.50;;
25946;SDS011;13745;51.470;9.894;2023-05-02T03:11:25;6.25;;;5.65;;
25946;SDS011;13745;51.470;9.894;2023-05-02T03:14:10;7.65;;;5.80;;
25946;SDS011;13745;51.470;9.894;2023-05-02T03:16:55;7.13;;;6.38;;
25946;SDS011;13745;51.470;9.894;2023-05-02T03:19:41;7.78;;;6.93;;
25946;SDS011;13745;51.470;9.894;2023-05-02T03:22:26;8.68;;;6.53;;
25946;SDS011;13745;51.470;9.894;2023-05-02T03:25:12;8.02;;;7.07;;
25946;SDS011;13745;51.470;9.894;2023-05-02T03:28:03;9.02;;;7.60;;
25946;SDS011;13745;51.470;9.894;2023-05-02T03:30:49;7.90;;;7.20;;
25946;SDS011;13745;51.470;9.894;2023-05-02T03:33:34;8.05;;;7.22;;
25946;SDS011;13745;51.470;9.894;2023-05-02T03:36:19;9.05;;;7.55;;
25946;SDS011;13745;51.470;9.894;2023-05-02T03:39:05;9.02;;;7.75;;
25946;SDS011;13745;51.470;9.894;2023-05-02T03:41:50;7.80;;;7.10;;
25946;SDS011;13745;51.470;9.894;2023-05-02T03:44:40;8.80;;;7.90;;
25946;SDS011;13745;51.470;9.894;2023-05-02T03:47:25;8.63;;;7.57;;
25946;SDS011;13745;51.470;9.894;2023-05-02T03:50:11;9.52;;;7.38;;
25946;SDS011;13745;51.470;9.894;2023-05-02T03:52:56;9.18;;;7.38;;
25946;SDS011;13745;51.470;9.894;2023-05-02T03:55:50;8.57;;;6.85;;
25946;SDS011;13745;51.470;9.894;2023-05-02T03:58:44;9.50;;;7.88;;
25946;SDS011;13745;51.470;9.894;2023-05-02T04:01:31;9.80;;;7.28;;
25946;SDS011;13745;51.470;9.894;2023-05-02T04:04:20;8.48;;;7.18;;
25946;SDS011;13745;51.470;9.894;2023-05-02T04:07:08;12.00;;;8.18;;
25946;SDS011;13745;51.470;9.894;2023-05-02T04:09:59;10.75;;;8.35;;
25946;SDS011;13745;51.470;9.894;2023-05-02T04:12:46;10.90;;;8.02;;
25946;SDS011;13745;51.470;9.894;2023-05-02T04:15:32;10.98;;;8.25;;
25946;SDS011;13745;51.470;9.894;2023-05-02T04:18:19;9.35;;;8.45;;
25946;SDS011;13745;51.470;9.894;2023-05-02T04:21:06;11.65;;;7.85;;
25946;SDS011;13745;51.470;9.894;2023-05-02T04:23:53;10.05;;;7.88;;
25946;SDS011;13745;51.470;9.894;2023-05-02T04:26:39;9.95;;;7.95;;
25946;SDS011;13745;51.470;9.894;2023-05-02T04:29:27;9.23;;;7.93;;
25946;SDS011;13745;51.470;9.894;2023-05-02T04:32:12;10.75;;;9.15;;
25946;SDS011;13745;51.470;9.894;2023-05-02T04:34:59;11.43;;;8.95;;
25946;SDS011;13745;51.470;9.894;2023-05-02T04:37:44;12.88;;;9.00;;
25946;SDS011;13745;51.470;9.894;2023-05-02T04:40:29;10.43;;;8.60;;
25946;SDS011;13745;51.470;9.894;2023-05-02T04:43:19;11.80;;;9.52;;
25946;SDS011;13745;51.470;9.894;2023-05-02T04:46:11;10.65;;;9.13;;
25946;SDS011;13745;51.470;9.894;2023-05-02T04:48:56;15.35;;;9.98;;
25946;SDS011;13745;51.470;9.894;2023-05-02T04:51:42;13.15;;;10.32;;
25946;SDS011;13745;51.470;9.894;2023-05-02T04:54:28;14.18;;;10.10;;
25946;SDS011;13745;51.470;9.894;2023-05-02T04:57:14;12.15;;;10.35;;
25946;SDS011;13745;51.470;9.894;2023-05-02T05:00:04;14.02;;;10.93;;
25946;SDS011;13745;51.470;9.894;2023-05-02T05:02:50;14.63;;;10.30;;
25946;SDS011;13745;51.470;9.894;2023-05-02T05:05:35;13.63;;;10.45;;
25946;SDS011;13745;51.470;9.894;2023-05-02T05:08:24;15.75;;;10.90;;
25946;SDS011;13745;51.470;9.894;2023-05-02T05:11:10;15.43;;;11.93;;
25946;SDS011;13745;51.470;9.894;2023-05-02T05:13:55;17.05;;;12.43;;
25946;SDS011;13745;51.470;9.894;2023-05-02T05:16:41;15.18;;;11.68;;
25946;SDS011;13745;51.470;9.894;2023-05-02T05:19:26;17.45;;;13.85;;
25946;SDS011;13745;51.470;9.894;2023-05-02T05:22:13;16.85;;;13.63;;
25946;SDS011;13745;51.470;9.894;2023-05-02T05:25:00;19.83;;;14.40;;
25946;SDS011;13745;51.470;9.894;2023-05-02T05:27:47;22.80;;;15.77;;
25946;SDS011;13745;51.470;9.894;2023-05-02T05:30:35;21.25;;;15.63;;
25946;SDS011;13745;51.470;9.894;2023-05-02T05:33:23;22.42;;;16.05;;
25946;SDS011;13745;51.470;9.894;2023-05-02T05:36:09;25.13;;;16.50;;
25946;SDS011;13745;51.470;9.894;2023-05-02T05:38:55;21.95;;;16.20;;
25946;SDS011;13745;51.470;9.894;2023-05-02T05:41:42;21.48;;;15.60;;
25946;SDS011;13745;51.470;9.894;2023-05-02T05:44:28;24.15;;;15.80;;
25946;SDS011;13745;51.470;9.894;2023-05-02T05:47:17;20.55;;;16.15;;
25946;SDS011;13745;51.470;9.894;2023-05-02T05:50:03;23.05;;;16.02;;
25946;SDS011;13745;51.470;9.894;2023-05-02T05:52:49;25.55;;;16.25;;
25946;SDS011;13745;51.470;9.894;2023-05-02T05:55:34;22.35;;;16.60;;
25946;SDS011;13745;51.470;9.894;2023-05-02T05:58:24;23.70;;;17.05;;
25946;SDS011;13745;51.470;9.894;2023-05-02T06:01:12;24.35;;;16.70;;
25946;SDS011;13745;51.470;9.894;2023-05-02T06:03:58;21.52;;;16.35;;
25946;SDS011;13745;51.470;9.894;2023-05-02T06:06:43;25.23;;;17.95;;
25946;SDS011;13745;51.470;9.894;2023-05-02T06:09:28;22.15;;;16.67;;
25946;SDS011;13745;51.470;9.894;2023-05-02T06:12:13;23.85;;;17.58;;
25946;SDS011;13745;51.470;9.894;2023-05-02T06:15:01;27.65;;;18.30;;
25946;SDS011;13745;51.470;9.894;2023-05-02T06:17:46;27.38;;;17.75;;
25946;SDS011;13745;51.470;9.894;2023-05-02T06:20:34;23.88;;;17.42;;
25946;SDS011;13745;51.470;9.894;2023-05-02T06:23:19;26.83;;;18.02;;
25946;SDS011;13745;51.470;9.894;2023-05-02T06:26:04;27.63;;;17.90;;
25946;SDS011;13745;51.470;9.894;2023-05-02T06:28:49;26.95;;;17.20;;
25946;SDS011;13745;51.470;9.894;2023-05-02T06:31:36;27.27;;;18.23;;
25946;SDS011;13745;51.470;9.894;2023-05-02T06:34:21;27.88;;;17.10;;
25946;SDS011;13745;51.470;9.894;2023-05-02T06:37:07;23.60;;;15.75;;
25946;SDS011;13745;51.470;9.894;2023-05-02T06:39:52;21.85;;;14.90;;
25946;SDS011;13745;51.470;9.894;2023-05-02T06:42:37;23.65;;;15.65;;
25946;SDS011;13745;51.470;9.894;2023-05-02T06:45:21;26.67;;;16.73;;
25946;SDS011;13745;51.470;9.894;2023-05-02T06:48:08;28.23;;;16.90;;
25946;SDS011;13745;51.470;9.894;2023-05-02T06:50:53;26.95;;;16.55;;
25946;SDS011;13745;51.470;9.894;2023-05-02T06:53:38;22.67;;;15.27;;
25946;SDS011;13745;51.470;9.894;2023-05-02T06:56:23;23.98;;;15.25;;
25946;SDS011;13745;51.470;9.894;2023-05-02T06:59:09;25.55;;;15.57;;
25946;SDS011;13745;51.470;9.894;2023-05-02T07:01:54;25.02;;;15.43;;
25946;SDS011;13745;51.470;9.894;2023-05-02T07:04:40;24.20;;;15.30;;
25946;SDS011;13745;51.470;9.894;2023-05-02T07:07:26;22.73;;;13.63;;
25946;SDS011;13745;51.470;9.894;2023-05-02T07:10:11;27.90;;;16.10;;
25946;SDS011;13745;51.470;9.894;2023-05-02T07:12:56;22.33;;;14.70;;
25946;SDS011;13745;51.470;9.894;2023-05-02T07:15:41;22.50;;;14.55;;
25946;SDS011;13745;51.470;9.894;2023-05-02T07:18:26;26.77;;;14.55;;
25946;SDS011;13745;51.470;9.894;2023-05-02T07:21:12;18.88;;;12.30;;
25946;SDS011;13745;51.470;9.894;2023-05-02T07:23:58;18.73;;;12.00;;
25946;SDS011;13745;51.470;9.894;2023-05-02T07:26:43;17.50;;;9.95;;
25946;SDS011;13745;51.470;9.894;2023-05-02T07:29:28;10.77;;;7.68;;
25946;SDS011;13745;51.470;9.894;2023-05-02T07:32:13;10.85;;;7.70;;
25946;SDS011;13745;51.470;9.894;2023-05-02T07:34:58;12.02;;;7.55;;
25946;SDS011;13745;51.470;9.894;2023-05-02T07:37:44;13.48;;;8.13;;
25946;SDS011;13745;51.470;9.894;2023-05-02T07:40:30;12.07;;;7.30;;
25946;SDS011;13745;51.470;9.894;2023-05-02T07:43:15;9.00;;;6.15;;
25946;SDS011;13745;51.470;9.894;2023-05-02T07:46:02;8.55;;;6.05;;
25946;SDS011;13745;51.470;9.894;2023-05-02T07:48:48;10.80;;;6.40;;
25946;SDS011;13745;51.470;9.894;2023-05-02T07:51:33;9.02;;;6.07;;
25946;SDS011;13745;51.470;9.894;2023-05-02T07:54:20;7.97;;;5.13;;
25946;SDS011;13745;51.470;9.894;2023-05-02T07:57:06;8.98;;;5.72;;
25946;SDS011;13745;51.470;9.894;2023-05-02T07:59:51;10.48;;;6.35;;
25946;SDS011;13745;51.470;9.894;2023-05-02T08:02:39;7.43;;;5.57;;
25946;SDS011;13745;51.470;9.894;2023-05-02T08:05:25;8.73;;;5.43;;
25946;SDS011;13745;51.470;9.894;2023-05-02T08:08:10;8.68;;;5.70;;
25946;SDS011;13745;51.470;9.894;2023-05-02T08:10:56;8.90;;;5.72;;
25946;SDS011;13745;51.470;9.894;2023-05-02T08:13:42;8.93;;;5.47;;
25946;SDS011;13745;51.470;9.894;2023-05-02T08:16:27;8.07;;;5.00;;
25946;SDS011;13745;51.470;9.894;2023-05-02T08:19:12;6.78;;;4.63;;
25946;SDS011;13745;51.470;9.894;2023-05-02T08:21:57;6.05;;;3.72;;
25946;SDS011;13745;51.470;9.894;2023-05-02T08:24:42;6.10;;;3.75;;
25946;SDS011;13745;51.470;9.894;2023-05-02T08:27:29;7.20;;;4.90;;
25946;SDS011;13745;51.470;9.894;2023-05-02T08:30:14;5.45;;;3.95;;
25946;SDS011;13745;51.470;9.894;2023-05-02T08:32:59;7.13;;;4.70;;
25946;SDS011;13745;51.470;9.894;2023-05-02T08:35:44;5.95;;;3.72;;
25946;SDS011;13745;51.470;9.894;2023-05-02T08:38:30;7.95;;;4.13;;
25946;SDS011;13745;51.470;9.894;2023-05-02T08:41:15;5.13;;;3.92;;
25946;SDS011;13745;51.470;9.894;2023-05-02T08:44:03;4.10;;;3.38;;
25946;SDS011;13745;51.470;9.894;2023-05-02T08:46:50;4.20;;;2.50;;
25946;SDS011;13745;51.470;9.894;2023-05-02T08:49:36;3.00;;;1.60;;
25946;SDS011;13745;51.470;9.894;2023-05-02T08:52:22;0.60;;;0.60;;
25946;SDS011;13745;51.470;9.894;2023-05-02T08:55:09;1.42;;;0.70;;
25946;SDS011;13745;51.470;9.894;2023-05-02T08:57:56;3.30;;;0.80;;
25946;SDS011;13745;51.470;9.894;2023-05-02T09:00:43;0.77;;;0.70;;
25946;SDS011;13745;51.470;9.894;2023-05-02T09:03:34;1.33;;;0.90;;
25946;SDS011;13745;51.470;9.894;2023-05-02T09:06:20;0.57;;;0.50;;
25946;SDS011;13745;51.470;9.894;2023-05-02T09:09:06;1.17;;;1.02;;
25946;SDS011;13745;51.470;9.894;2023-05-02T09:11:51;1.45;;;0.98;;
25946;SDS011;13745;51.470;9.894;2023-05-02T09:14:36;0.95;;;0.90;;
25946;SDS011;13745;51.470;9.894;2023-05-02T09:17:22;1.30;;;1.20;;
25946;SDS011;13745;51.470;9.894;2023-05-02T09:20:11;3.22;;;1.60;;
25946;SDS011;13745;51.470;9.894;2023-05-02T09:22:56;3.88;;;1.80;;
25946;SDS011;13745;51.470;9.894;2023-05-02T09:25:41;3.30;;;1.77;;
25946;SDS011;13745;51.470;9.894;2023-05-02T09:28:40;2.60;;;2.05;;
25946;SDS011;13745;51.470;9.894;2023-05-02T09:31:27;6.45;;;3.05;;
25946;SDS011;13745;51.470;9.894;2023-05-02T09:34:17;6.72;;;2.95;;
25946;SDS011;13745;51.470;9.894;2023-05-02T09:37:02;3.75;;;3.05;;
25946;SDS011;13745;51.470;9.894;2023-05-02T09:40:02;4.93;;;3.63;;
25946;SDS011;13745;51.470;9.894;2023-05-02T09:42:49;4.85;;;3.65;;
25946;SDS011;13745;51.470;9.894;2023-05-02T09:45:35;6.57;;;3.55;;
25946;SDS011;13745;51.470;9.894;2023-05-02T09:48:20;4.32;;;3.25;;
25946;SDS011;13745;51.470;9.894;2023-05-02T09:51:06;4.30;;;3.70;;
25946;SDS011;13745;51.470;9.894;2023-05-02T09:54:00;9.07;;;4.07;;
25946;SDS011;13745;51.470;9.894;2023-05-02T09:56:52;6.93;;;4.00;;
25946;SDS011;13745;51.470;9.894;2023-05-02T09:59:39;5.30;;;4.15;;
25946;SDS011;13745;51.470;9.894;2023-05-02T10:02:24;6.30;;;4.70;;
25946;SDS011;13745;51.470;9.894;2023-05-02T10:05:10;7.25;;;4.53;;
25946;SDS011;13745;51.470;9.894;2023-05-02T10:07:57;6.07;;;4.57;;
25946;SDS011;13745;51.470;9.894;2023-05-02T10:10:44;12.48;;;5.90;;
25946;SDS011;13745;51.470;9.894;2023-05-02T10:13:31;9.23;;;5.65;;
25946;SDS011;13745;51.470;9.894;2023-05-02T10:16:25;9.07;;;5.45;;
25946;SDS011;13745;51.470;9.894;2023-05-02T10:19:13;11.48;;;6.00;;
25946;SDS011;13745;51.470;9.894;2023-05-02T10:22:05;7.90;;;5.25;;
25946;SDS011;13745;51.470;9.894;2023-05-02T10:24:52;11.65;;;6.82;;
25946;SDS011;13745;51.470;9.894;2023-05-02T10:27:41;14.40;;;8.80;;
25946;SDS011;13745;51.470;9.894;2023-05-02T10:30:27;17.20;;;9.43;;
25946;SDS011;13745;51.470;9.894;2023-05-02T10:33:13;20.45;;;10.57;;
25946;SDS011;13745;51.470;9.894;2023-05-02T10:36:01;15.35;;;8.38;;
25946;SDS011;13745;51.470;9.894;2023-05-02T10:38:46;23.90;;;12.15;;
25946;SDS011;13745;51.470;9.894;2023-05-02T10:41:33;18.15;;;9.32;;
25946;SDS011;13745;51.470;9.894;2023-05-02T10:44:30;22.20;;;10.23;;
25946;SDS011;13745;51.470;9.894;2023-05-02T10:47:17;24.73;;;11.15;;
25946;SDS011;13745;51.470;9.894;2023-05-02T10:50:05;22.05;;;8.98;;
25946;SDS011;13745;51.470;9.894;2023-05-02T10:52:51;11.68;;;6.75;;
25946;SDS011;13745;51.470;9.894;2023-05-02T10:55:36;15.00;;;7.07;;
25946;SDS011;13745;51.470;9.894;2023-05-02T10:58:23;15.40;;;7.25;;
25946;SDS011;13745;51.470;9.894;2023-05-02T11:07:45;12.30;;;6.38;;
25946;SDS011;13745;51.470;9.894;2023-05-02T11:10:30;13.95;;;6.43;;
25946;SDS011;13745;51.470;9.894;2023-05-02T11:13:15;14.25;;;6.70;;
25946;SDS011;13745;51.470;9.894;2023-05-02T11:16:01;11.57;;;6.80;;
25946;SDS011;13745;51.470;9.894;2023-05-02T11:18:59;15.50;;;6.95;;
25946;SDS011;13745;51.470;9.894;2023-05-02T11:21:44;14.77;;;7.38;;
25946;SDS011;13745;51.470;9.894;2023-05-02T11:24:36;13.02;;;6.70;;
25946;SDS011;13745;51.470;9.894;2023-05-02T11:27:37;13.02;;;7.00;;
25946;SDS011;13745;51.470;9.894;2023-05-02T11:30:36;11.23;;;6.20;;
25946;SDS011;13745;51.470;9.894;2023-05-02T11:33:25;11.02;;;6.47;;
25946;SDS011;13745;51.470;9.894;2023-05-02T11:36:11;15.63;;;6.47;;
25946;SDS011;13745;51.470;9.894;2023-05-02T11:38:56;8.32;;;6.18;;
25946;SDS011;13745;51.470;9.894;2023-05-02T11:41:42;9.48;;;6.93;;
25946;SDS011;13745;51.470;9.894;2023-05-02T11:44:30;9.70;;;6.05;;
25946;SDS011;13745;51.470;9.894;2023-05-02T11:47:15;9.50;;;6.55;;
25946;SDS011;13745;51.470;9.894;2023-05-02T11:50:02;9.73;;;5.72;;
25946;SDS011;13745;51.470;9.894;2023-05-02T11:52:48;6.78;;;5.63;;
25946;SDS011;13745;51.470;9.894;2023-05-02T11:55:33;8.75;;;5.40;;
25946;SDS011;13745;51.470;9.894;2023-05-02T11:58:19;10.65;;;5.07;;
25946;SDS011;13745;51.470;9.894;2023-05-02T12:01:12;11.55;;;5.93;;
25946;SDS011;13745;51.470;9.894;2023-05-02T12:04:01;15.35;;;5.85;;
25946;SDS011;13745;51.470;9.894;2023-05-02T12:06:55;10.43;;;5.93;;
25946;SDS011;13745;51.470;9.894;2023-05-02T12:09:50;14.60;;;7.03;;
25946;SDS011;13745;51.470;9.894;2023-05-02T12:12:38;12.98;;;5.28;;
25946;SDS011;13745;51.470;9.894;2023-05-02T12:15:25;6.57;;;4.68;;
25946;SDS011;13745;51.470;9.894;2023-05-02T12:18:10;13.88;;;6.95;;
25946;SDS011;13745;51.470;9.894;2023-05-02T12:20:57;13.70;;;7.30;;
25946;SDS011;13745;51.470;9.894;2023-05-02T12:23:43;15.60;;;7.55;;
25946;SDS011;13745;51.470;9.894;2023-05-02T12:26:29;15.55;;;7.32;;
25946;SDS011;13745;51.470;9.894;2023-05-02T12:29:15;18.42;;;6.95;;
25946;SDS011;13745;51.470;9.894;2023-05-02T12:32:00;17.95;;;6.90;;
25946;SDS011;13745;51.470;9.894;2023-05-02T12:34:45;23.65;;;7.35;;
25946;SDS011;13745;51.470;9.894;2023-05-02T12:37:30;18.30;;;7.43;;
25946;SDS011;13745;51.470;9.894;2023-05-02T12:40:16;18.90;;;7.20;;
25946;SDS011;13745;51.470;9.894;2023-05-02T12:43:03;20.17;;;7.78;;
25946;SDS011;13745;51.470;9.894;2023-05-02T12:45:57;23.70;;;8.07;;
25946;SDS011;13745;51.470;9.894;2023-05-02T12:49:03;19.08;;;8.10;;
25946;SDS011;13745;51.470;9.894;2023-05-02T12:51:51;19.02;;;8.18;;
25946;SDS011;13745;51.470;9.894;2023-05-02T12:54:38;22.52;;;8.38;;
25946;SDS011;13745;51.470;9.894;2023-05-02T12:57:24;17.93;;;7.77;;
25946;SDS011;13745;51.470;9.894;2023-05-02T13:00:10;23.33;;;8.82;;
25946;SDS011;13745;51.470;9.894;2023-05-02T13:02:56;18.45;;;7.40;;
25946;SDS011;13745;51.470;9.894;2023-05-02T13:05:41;19.83;;;7.82;;
25946;SDS011;13745;51.470;9.894;2023-05-02T13:08:26;24.33;;;7.32;;
25946;SDS011;13745;51.470;9.894;2023-05-02T13:11:11;19.02;;;7.63;;
25946;SDS011;13745;51.470;9.894;2023-05-02T13:13:58;19.75;;;7.07;;
25946;SDS011;13745;51.470;9.894;2023-05-02T13:16:45;18.45;;;5.75;;
25946;SDS011;13745;51.470;9.894;2023-05-02T13:19:30;13.15;;;5.35;;
25946;SDS011;13745;51.470;9.894;2023-05-02T13:22:15;11.70;;;5.10;;
25946;SDS011;13745;51.470;9.894;2023-05-02T13:25:00;20.45;;;6.53;;
25946;SDS011;13745;51.470;9.894;2023-05-02T13:27:46;14.25;;;5.93;;
25946;SDS011;13745;51.470;9.894;2023-05-02T13:30:32;10.40;;;5.43;;
25946;SDS011;13745;51.470;9.894;2023-05-02T13:33:17;16.95;;;5.70;;
25946;SDS011;13745;51.470;9.894;2023-05-02T13:36:02;13.32;;;5.35;;
25946;SDS011;13745;51.470;9.894;2023-05-02T13:38:48;16.38;;;5.55;;
25946;SDS011;13745;51.470;9.894;2023-05-02T13:41:33;15.82;;;5.68;;
25946;SDS011;13745;51.470;9.894;2023-05-02T13:44:18;12.95;;;4.93;;
25946;SDS011;13745;51.470;9.894;2023-05-02T13:47:04;16.73;;;5.43;;
25946;SDS011;13745;51.470;9.894;2023-05-02T13:49:50;20.33;;;6.07;;
25946;SDS011;13745;51.470;9.894;2023-05-02T13:52:35;17.15;;;5.72;;
25946;SDS011;13745;51.470;9.894;2023-05-02T13:55:20;19.08;;;5.43;;
25946;SDS011;13745;51.470;9.894;2023-05-02T13:58:05;17.08;;;5.18;;
25946;SDS011;13745;51.470;9.894;2023-05-02T14:00:50;13.27;;;5.10;;
25946;SDS011;13745;51.470;9.894;2023-05-02T14:03:37;10.88;;;4.60;;
25946;SDS011;13745;51.470;9.894;2023-05-02T14:06:22;24.73;;;6.03;;
25946;SDS011;13745;51.470;9.894;2023-05-02T14:09:07;18.70;;;5.22;;
25946;SDS011;13745;51.470;9.894;2023-05-02T14:11:52;17.08;;;5.47;;
25946;SDS011;13745;51.470;9.894;2023-05-02T14:14:38;9.63;;;4.30;;
25946;SDS011;13745;51.470;9.894;2023-05-02T14:17:23;13.68;;;4.80;;
25946;SDS011;13745;51.470;9.894;2023-05-02T14:20:11;9.85;;;4.70;;
25946;SDS011;13745;51.470;9.894;2023-05-02T14:22:56;13.48;;;5.30;;
25946;SDS011;13745;51.470;9.894;2023-05-02T14:25:41;11.10;;;4.60;;
25946;SDS011;13745;51.470;9.894;2023-05-02T14:28:26;8.65;;;4.90;;
25946;SDS011;13745;51.470;9.894;2023-05-02T14:31:11;11.38;;;5.60;;
25946;SDS011;13745;51.470;9.894;2023-05-02T14:33:56;12.25;;;4.70;;
25946;SDS011;13745;51.470;9.894;2023-05-02T14:36:42;13.13;;;4.75;;
25946;SDS011;13745;51.470;9.894;2023-05-02T14:39:28;10.25;;;4.15;;
25946;SDS011;13745;51.470;9.894;2023-05-02T14:42:13;8.40;;;4.00;;
25946;SDS011;13745;51.470;9.894;2023-05-02T14:44:58;8.45;;;4.70;;
25946;SDS011;13745;51.470;9.894;2023-05-02T14:47:44;10.95;;;4.35;;
25946;SDS011;13745;51.470;9.894;2023-05-02T14:50:29;9.27;;;3.83;;
25946;SDS011;13745;51.470;9.894;2023-05-02T14:53:16;5.78;;;4.43;;
25946;SDS011;13745;51.470;9.894;2023-05-02T14:56:01;10.43;;;4.13;;
25946;SDS011;13745;51.470;9.894;2023-05-02T14:58:46;7.55;;;3.95;;
25946;SDS011;13745;51.470;9.894;2023-05-02T15:01:31;8.73;;;4.20;;
25946;SDS011;13745;51.470;9.894;2023-05-02T15:04:16;9.95;;;4.28;;
25946;SDS011;13745;51.470;9.894;2023-05-02T15:07:02;5.07;;;3.13;;
25946;SDS011;13745;51.470;9.894;2023-05-02T15:09:48;8.20;;;3.85;;
25946;SDS011;13745;51.470;9.894;2023-05-02T15:12:33;13.35;;;4.25;;
25946;SDS011;13745;51.470;9.894;2023-05-02T15:15:18;6.50;;;3.05;;
25946;SDS011;13745;51.470;9.894;2023-05-02T15:18:07;6.97;;;3.13;;
25946;SDS011;13745;51.470;9.894;2023-05-02T15:20:52;6.95;;;3.83;;
25946;SDS011;13745;51.470;9.894;2023-05-02T15:23:37;8.90;;;4.00;;
25946;SDS011;13745;51.470;9.894;2023-05-02T15:26:23;6.07;;;3.70;;
25946;SDS011;13745;51.470;9.894;2023-05-02T15:29:09;7.40;;;3.92;;
25946;SDS011;13745;51.470;9.894;2023-05-02T15:53:56;4.43;;;2.92;;
25946;SDS011;13745;51.470;9.894;2023-05-02T15:56:41;9.38;;;3.20;;
25946;SDS011;13745;51.470;9.894;2023-05-02T16:02:13;6.85;;;2.95;;
25946;SDS011;13745;51.470;9.894;2023-05-02T16:04:58;8.27;;;3.25;;
25946;SDS011;13745;51.470;9.894;2023-05-02T16:07:43;11.73;;;3.28;;
25946;SDS011;13745;51.470;9.894;2023-05-02T16:10:28;8.13;;;3.13;;
25946;SDS011;13745;51.470;9.894;2023-05-02T16:13:13;7.05;;;3.05;;
25946;SDS011;13745;51.470;9.894;2023-05-02T16:16:00;6.47;;;3.03;;
25946;SDS011;13745;51.470;9.894;2023-05-02T16:18:45;10.23;;;3.88;;
25946;SDS011;13745;51.470;9.894;2023-05-02T16:21:30;9.02;;;6.15;;
25946;SDS011;13745;51.470;9.894;2023-05-02T16:24:15;9.35;;;6.10;;
25946;SDS011;13745;51.470;9.894;2023-05-02T16:27:00;10.85;;;3.30;;
25946;SDS011;13745;51.470;9.894;2023-05-02T16:29:45;5.57;;;3.03;;
25946;SDS011;13745;51.470;9.894;2023-05-02T16:32:32;9.45;;;3.30;;
25946;SDS011;13745;51.470;9.894;2023-05-02T16:35:17;9.02;;;2.63;;
25946;SDS011;13745;51.470;9.894;2023-05-02T16:38:03;7.38;;;2.72;;
25946;SDS011;13745;51.470;9.894;2023-05-02T16:40:48;6.85;;;2.45;;
25946;SDS011;13745;51.470;9.894;2023-05-02T16:43:34;7.70;;;3.10;;
25946;SDS011;13745;51.470;9.894;2023-05-02T16:46:20;8.20;;;3.10;;
